San Rafael, Argentina
Current Conditions -  °F | °C
As of 6:00 PM on Saturday 22 Nov 2014 (Local Time) from SANT Reporting Station
Broken Clouds Broken Clouds  
Wind Chill: 82°   Ceiling: 5000
Heat Index: 82°   Visibility: 6mi
Dew Point: 59°   Wind: 12mph
Humidity: 45%   Direction: 50°NE
Pressure: 29.91"   Gusts: NA
Location:  26.97°S, 65.38°W
Report Text: SANT 222100Z 05010KT 9999 FEW040 BKN05028/15 Q1013
Loading
Personal Weather Stations






























Interactive Weather Map New forecast layout! Learn more

10-Day Weather Forecast

Advertisements
Track Severe Weather on mobile